sensor_id;sensor_type;location;lat;lon;timestamp;P1;durP1;ratioP1;P2;durP2;ratioP2
68714;SDS011;55692;53.356;10.030;2024-02-16T00:01:00;6.45;;;2.20;;
68714;SDS011;55692;53.356;10.030;2024-02-16T00:03:26;4.78;;;2.45;;
68714;SDS011;55692;53.356;10.030;2024-02-16T00:05:52;4.72;;;2.25;;
68714;SDS011;55692;53.356;10.030;2024-02-16T00:08:19;4.63;;;2.47;;
68714;SDS011;55692;53.356;10.030;2024-02-16T00:10:47;8.80;;;2.40;;
68714;SDS011;55692;53.356;10.030;2024-02-16T00:13:13;6.00;;;2.10;;
68714;SDS011;55692;53.356;10.030;2024-02-16T00:15:40;5.60;;;2.40;;
68714;SDS011;55692;53.356;10.030;2024-02-16T00:18:06;3.72;;;2.00;;
68714;SDS011;55692;53.356;10.030;2024-02-16T00:20:32;7.07;;;2.60;;
68714;SDS011;55692;53.356;10.030;2024-02-16T00:22:58;6.47;;;2.20;;
68714;SDS011;55692;53.356;10.030;2024-02-16T00:25:27;7.28;;;2.15;;
68714;SDS011;55692;53.356;10.030;2024-02-16T00:27:53;3.88;;;2.00;;
68714;SDS011;55692;53.356;10.030;2024-02-16T00:30:19;9.10;;;2.20;;
68714;SDS011;55692;53.356;10.030;2024-02-16T00:32:46;4.32;;;2.30;;
68714;SDS011;55692;53.356;10.030;2024-02-16T00:35:12;3.25;;;1.83;;
68714;SDS011;55692;53.356;10.030;2024-02-16T00:37:41;3.40;;;1.77;;
68714;SDS011;55692;53.356;10.030;2024-02-16T00:40:07;6.85;;;2.10;;
68714;SDS011;55692;53.356;10.030;2024-02-16T00:42:33;7.35;;;2.13;;
68714;SDS011;55692;53.356;10.030;2024-02-16T00:45:00;6.45;;;2.17;;
68714;SDS011;55692;53.356;10.030;2024-02-16T00:47:26;3.22;;;2.03;;
68714;SDS011;55692;53.356;10.030;2024-02-16T00:49:55;3.85;;;2.08;;
68714;SDS011;55692;53.356;10.030;2024-02-16T00:52:22;4.45;;;2.13;;
68714;SDS011;55692;53.356;10.030;2024-02-16T00:54:48;6.43;;;2.75;;
68714;SDS011;55692;53.356;10.030;2024-02-16T00:57:15;6.40;;;2.00;;
68714;SDS011;55692;53.356;10.030;2024-02-16T00:59:41;4.43;;;1.98;;
68714;SDS011;55692;53.356;10.030;2024-02-16T01:02:07;3.88;;;1.90;;
68714;SDS011;55692;53.356;10.030;2024-02-16T01:04:35;6.70;;;2.22;;
68714;SDS011;55692;53.356;10.030;2024-02-16T01:07:01;4.32;;;1.90;;
68714;SDS011;55692;53.356;10.030;2024-02-16T01:09:28;3.90;;;1.67;;
68714;SDS011;55692;53.356;10.030;2024-02-16T01:11:54;5.95;;;2.30;;
68714;SDS011;55692;53.356;10.030;2024-02-16T01:14:20;5.53;;;2.08;;
68714;SDS011;55692;53.356;10.030;2024-02-16T01:16:46;7.47;;;2.28;;
68714;SDS011;55692;53.356;10.030;2024-02-16T01:19:12;5.55;;;1.90;;
68714;SDS011;55692;53.356;10.030;2024-02-16T01:21:38;2.80;;;1.63;;
68714;SDS011;55692;53.356;10.030;2024-02-16T01:24:04;5.55;;;2.17;;
68714;SDS011;55692;53.356;10.030;2024-02-16T01:26:31;5.50;;;1.90;;
68714;SDS011;55692;53.356;10.030;2024-02-16T01:28:58;3.42;;;1.83;;
68714;SDS011;55692;53.356;10.030;2024-02-16T01:31:24;7.18;;;2.28;;
68714;SDS011;55692;53.356;10.030;2024-02-16T01:33:51;7.72;;;2.45;;
68714;SDS011;55692;53.356;10.030;2024-02-16T01:36:17;7.25;;;2.10;;
68714;SDS011;55692;53.356;10.030;2024-02-16T01:38:43;3.50;;;1.98;;
68714;SDS011;55692;53.356;10.030;2024-02-16T01:41:09;3.58;;;2.10;;
68714;SDS011;55692;53.356;10.030;2024-02-16T01:43:36;5.18;;;1.80;;
68714;SDS011;55692;53.356;10.030;2024-02-16T01:46:02;10.52;;;3.47;;
68714;SDS011;55692;53.356;10.030;2024-02-16T01:48:28;3.33;;;2.15;;
68714;SDS011;55692;53.356;10.030;2024-02-16T01:50:54;4.47;;;2.08;;
68714;SDS011;55692;53.356;10.030;2024-02-16T01:53:20;4.45;;;2.28;;
68714;SDS011;55692;53.356;10.030;2024-02-16T01:55:47;4.80;;;2.00;;
68714;SDS011;55692;53.356;10.030;2024-02-16T01:58:13;4.65;;;2.67;;
68714;SDS011;55692;53.356;10.030;2024-02-16T02:00:42;7.40;;;2.50;;
68714;SDS011;55692;53.356;10.030;2024-02-16T02:03:08;3.10;;;2.20;;
68714;SDS011;55692;53.356;10.030;2024-02-16T02:05:43;7.97;;;2.60;;
68714;SDS011;55692;53.356;10.030;2024-02-16T02:08:10;10.90;;;2.42;;
68714;SDS011;55692;53.356;10.030;2024-02-16T02:10:36;2.83;;;2.05;;
68714;SDS011;55692;53.356;10.030;2024-02-16T02:13:02;2.92;;;1.85;;
68714;SDS011;55692;53.356;10.030;2024-02-16T02:15:28;4.35;;;1.95;;
68714;SDS011;55692;53.356;10.030;2024-02-16T02:17:54;6.47;;;2.33;;
68714;SDS011;55692;53.356;10.030;2024-02-16T02:20:20;6.85;;;2.13;;
68714;SDS011;55692;53.356;10.030;2024-02-16T02:22:46;5.00;;;2.13;;
68714;SDS011;55692;53.356;10.030;2024-02-16T02:25:12;4.07;;;2.00;;
68714;SDS011;55692;53.356;10.030;2024-02-16T02:27:38;7.53;;;2.65;;
68714;SDS011;55692;53.356;10.030;2024-02-16T02:30:04;4.25;;;2.03;;
68714;SDS011;55692;53.356;10.030;2024-02-16T02:32:31;6.22;;;2.10;;
68714;SDS011;55692;53.356;10.030;2024-02-16T02:34:57;4.05;;;2.20;;
68714;SDS011;55692;53.356;10.030;2024-02-16T02:37:23;6.57;;;2.22;;
68714;SDS011;55692;53.356;10.030;2024-02-16T02:39:49;5.13;;;2.22;;
68714;SDS011;55692;53.356;10.030;2024-02-16T02:42:15;4.15;;;1.90;;
68714;SDS011;55692;53.356;10.030;2024-02-16T02:44:42;5.97;;;2.00;;
68714;SDS011;55692;53.356;10.030;2024-02-16T02:47:14;5.03;;;2.08;;
68714;SDS011;55692;53.356;10.030;2024-02-16T02:49:40;6.63;;;2.03;;
68714;SDS011;55692;53.356;10.030;2024-02-16T02:52:06;6.32;;;2.28;;
68714;SDS011;55692;53.356;10.030;2024-02-16T02:54:32;5.53;;;2.50;;
68714;SDS011;55692;53.356;10.030;2024-02-16T02:56:58;5.35;;;2.53;;
68714;SDS011;55692;53.356;10.030;2024-02-16T02:59:24;4.68;;;2.17;;
68714;SDS011;55692;53.356;10.030;2024-02-16T03:01:50;8.45;;;2.72;;
68714;SDS011;55692;53.356;10.030;2024-02-16T03:04:16;5.18;;;2.50;;
68714;SDS011;55692;53.356;10.030;2024-02-16T03:06:42;5.68;;;2.20;;
68714;SDS011;55692;53.356;10.030;2024-02-16T03:09:10;4.40;;;2.25;;
68714;SDS011;55692;53.356;10.030;2024-02-16T03:11:36;5.80;;;2.35;;
68714;SDS011;55692;53.356;10.030;2024-02-16T03:14:02;9.57;;;2.95;;
68714;SDS011;55692;53.356;10.030;2024-02-16T03:16:30;8.48;;;2.47;;
68714;SDS011;55692;53.356;10.030;2024-02-16T03:18:56;8.32;;;2.47;;
68714;SDS011;55692;53.356;10.030;2024-02-16T03:21:22;10.77;;;2.55;;
68714;SDS011;55692;53.356;10.030;2024-02-16T03:23:48;7.63;;;2.70;;
68714;SDS011;55692;53.356;10.030;2024-02-16T03:26:17;3.88;;;2.15;;
68714;SDS011;55692;53.356;10.030;2024-02-16T03:28:44;6.28;;;2.15;;
68714;SDS011;55692;53.356;10.030;2024-02-16T03:31:16;6.30;;;2.40;;
68714;SDS011;55692;53.356;10.030;2024-02-16T03:33:42;8.02;;;2.95;;
68714;SDS011;55692;53.356;10.030;2024-02-16T03:36:09;6.60;;;2.13;;
68714;SDS011;55692;53.356;10.030;2024-02-16T03:38:37;5.43;;;2.47;;
68714;SDS011;55692;53.356;10.030;2024-02-16T03:41:04;6.63;;;2.35;;
68714;SDS011;55692;53.356;10.030;2024-02-16T03:43:31;4.90;;;2.15;;
68714;SDS011;55692;53.356;10.030;2024-02-16T03:45:57;9.73;;;2.65;;
68714;SDS011;55692;53.356;10.030;2024-02-16T03:48:23;7.47;;;2.35;;
68714;SDS011;55692;53.356;10.030;2024-02-16T03:50:49;7.05;;;2.13;;
68714;SDS011;55692;53.356;10.030;2024-02-16T03:53:15;6.00;;;2.40;;
68714;SDS011;55692;53.356;10.030;2024-02-16T03:55:41;6.90;;;2.42;;
68714;SDS011;55692;53.356;10.030;2024-02-16T03:58:07;8.07;;;2.10;;
68714;SDS011;55692;53.356;10.030;2024-02-16T04:00:33;9.18;;;2.35;;
68714;SDS011;55692;53.356;10.030;2024-02-16T04:02:59;4.60;;;2.90;;
68714;SDS011;55692;53.356;10.030;2024-02-16T04:05:25;5.22;;;2.30;;
68714;SDS011;55692;53.356;10.030;2024-02-16T04:07:56;9.63;;;2.35;;
68714;SDS011;55692;53.356;10.030;2024-02-16T04:10:26;4.93;;;2.47;;
68714;SDS011;55692;53.356;10.030;2024-02-16T04:12:53;6.38;;;2.20;;
68714;SDS011;55692;53.356;10.030;2024-02-16T04:15:19;7.72;;;2.53;;
68714;SDS011;55692;53.356;10.030;2024-02-16T04:17:45;8.18;;;2.28;;
68714;SDS011;55692;53.356;10.030;2024-02-16T04:20:11;6.38;;;2.20;;
68714;SDS011;55692;53.356;10.030;2024-02-16T04:22:37;4.72;;;2.00;;
68714;SDS011;55692;53.356;10.030;2024-02-16T04:25:04;7.03;;;2.60;;
68714;SDS011;55692;53.356;10.030;2024-02-16T04:27:30;5.68;;;2.05;;
68714;SDS011;55692;53.356;10.030;2024-02-16T04:29:56;10.23;;;2.92;;
68714;SDS011;55692;53.356;10.030;2024-02-16T04:32:22;10.32;;;2.50;;
68714;SDS011;55692;53.356;10.030;2024-02-16T04:34:50;5.07;;;2.13;;
68714;SDS011;55692;53.356;10.030;2024-02-16T04:37:17;7.63;;;2.95;;
68714;SDS011;55692;53.356;10.030;2024-02-16T04:39:46;3.78;;;2.13;;
68714;SDS011;55692;53.356;10.030;2024-02-16T04:42:12;4.32;;;2.08;;
68714;SDS011;55692;53.356;10.030;2024-02-16T04:44:38;6.22;;;2.30;;
68714;SDS011;55692;53.356;10.030;2024-02-16T04:47:04;6.10;;;1.95;;
68714;SDS011;55692;53.356;10.030;2024-02-16T04:49:30;3.47;;;1.88;;
68714;SDS011;55692;53.356;10.030;2024-02-16T04:51:56;2.75;;;1.80;;
68714;SDS011;55692;53.356;10.030;2024-02-16T04:54:23;5.28;;;2.03;;
68714;SDS011;55692;53.356;10.030;2024-02-16T04:56:49;3.40;;;2.03;;
68714;SDS011;55692;53.356;10.030;2024-02-16T04:59:16;5.45;;;2.10;;
68714;SDS011;55692;53.356;10.030;2024-02-16T05:01:45;5.03;;;2.03;;
68714;SDS011;55692;53.356;10.030;2024-02-16T05:04:11;7.03;;;2.67;;
68714;SDS011;55692;53.356;10.030;2024-02-16T05:06:44;5.57;;;2.38;;
68714;SDS011;55692;53.356;10.030;2024-02-16T05:09:13;7.07;;;2.47;;
68714;SDS011;55692;53.356;10.030;2024-02-16T05:11:45;3.30;;;2.00;;
68714;SDS011;55692;53.356;10.030;2024-02-16T05:14:11;4.63;;;2.00;;
68714;SDS011;55692;53.356;10.030;2024-02-16T05:16:37;5.75;;;2.08;;
68714;SDS011;55692;53.356;10.030;2024-02-16T05:19:03;5.47;;;2.22;;
68714;SDS011;55692;53.356;10.030;2024-02-16T05:21:29;3.80;;;2.20;;
68714;SDS011;55692;53.356;10.030;2024-02-16T05:23:55;6.78;;;2.35;;
68714;SDS011;55692;53.356;10.030;2024-02-16T05:26:21;4.75;;;1.80;;
68714;SDS011;55692;53.356;10.030;2024-02-16T05:28:47;4.97;;;2.17;;
68714;SDS011;55692;53.356;10.030;2024-02-16T05:31:14;5.00;;;1.95;;
68714;SDS011;55692;53.356;10.030;2024-02-16T05:33:42;3.92;;;1.90;;
68714;SDS011;55692;53.356;10.030;2024-02-16T05:36:08;9.38;;;3.47;;
68714;SDS011;55692;53.356;10.030;2024-02-16T05:38:34;3.92;;;1.90;;
68714;SDS011;55692;53.356;10.030;2024-02-16T05:41:05;5.72;;;2.10;;
68714;SDS011;55692;53.356;10.030;2024-02-16T05:43:31;4.35;;;2.10;;
68714;SDS011;55692;53.356;10.030;2024-02-16T05:45:58;4.03;;;2.10;;
68714;SDS011;55692;53.356;10.030;2024-02-16T05:48:24;7.70;;;2.28;;
68714;SDS011;55692;53.356;10.030;2024-02-16T05:50:56;5.05;;;2.33;;
68714;SDS011;55692;53.356;10.030;2024-02-16T05:53:25;5.40;;;2.40;;
68714;SDS011;55692;53.356;10.030;2024-02-16T05:55:51;3.45;;;2.00;;
68714;SDS011;55692;53.356;10.030;2024-02-16T05:58:17;8.57;;;2.15;;
68714;SDS011;55692;53.356;10.030;2024-02-16T06:00:43;6.65;;;2.33;;
68714;SDS011;55692;53.356;10.030;2024-02-16T06:03:09;6.03;;;2.47;;
68714;SDS011;55692;53.356;10.030;2024-02-16T06:05:35;4.72;;;1.85;;
68714;SDS011;55692;53.356;10.030;2024-02-16T06:08:01;7.47;;;2.30;;
68714;SDS011;55692;53.356;10.030;2024-02-16T06:10:27;5.68;;;2.20;;
68714;SDS011;55692;53.356;10.030;2024-02-16T06:12:53;7.93;;;2.25;;
68714;SDS011;55692;53.356;10.030;2024-02-16T06:15:19;6.07;;;2.05;;
68714;SDS011;55692;53.356;10.030;2024-02-16T06:17:45;9.05;;;2.53;;
68714;SDS011;55692;53.356;10.030;2024-02-16T06:20:11;7.88;;;2.30;;
68714;SDS011;55692;53.356;10.030;2024-02-16T06:22:38;4.15;;;1.80;;
68714;SDS011;55692;53.356;10.030;2024-02-16T06:25:04;6.38;;;2.10;;
68714;SDS011;55692;53.356;10.030;2024-02-16T06:27:30;7.70;;;2.45;;
68714;SDS011;55692;53.356;10.030;2024-02-16T06:29:57;5.70;;;1.98;;
68714;SDS011;55692;53.356;10.030;2024-02-16T06:32:23;6.95;;;2.05;;
68714;SDS011;55692;53.356;10.030;2024-02-16T06:34:49;5.45;;;1.73;;
68714;SDS011;55692;53.356;10.030;2024-02-16T06:37:15;8.43;;;2.20;;
68714;SDS011;55692;53.356;10.030;2024-02-16T06:39:41;3.95;;;1.90;;
68714;SDS011;55692;53.356;10.030;2024-02-16T06:42:08;3.55;;;2.00;;
68714;SDS011;55692;53.356;10.030;2024-02-16T06:44:37;6.05;;;2.20;;
68714;SDS011;55692;53.356;10.030;2024-02-16T06:47:03;4.90;;;1.95;;
68714;SDS011;55692;53.356;10.030;2024-02-16T06:49:29;6.43;;;2.20;;
68714;SDS011;55692;53.356;10.030;2024-02-16T06:51:55;4.22;;;2.08;;
68714;SDS011;55692;53.356;10.030;2024-02-16T06:54:21;4.03;;;1.73;;
68714;SDS011;55692;53.356;10.030;2024-02-16T06:56:47;4.03;;;1.85;;
68714;SDS011;55692;53.356;10.030;2024-02-16T06:59:13;3.22;;;1.85;;
68714;SDS011;55692;53.356;10.030;2024-02-16T07:01:39;8.07;;;2.20;;
68714;SDS011;55692;53.356;10.030;2024-02-16T07:04:05;6.78;;;1.50;;
68714;SDS011;55692;53.356;10.030;2024-02-16T07:06:32;4.07;;;1.77;;
68714;SDS011;55692;53.356;10.030;2024-02-16T07:08:58;7.00;;;2.58;;
68714;SDS011;55692;53.356;10.030;2024-02-16T07:11:24;4.53;;;2.10;;
68714;SDS011;55692;53.356;10.030;2024-02-16T07:13:50;5.00;;;1.95;;
68714;SDS011;55692;53.356;10.030;2024-02-16T07:16:16;4.57;;;2.35;;
68714;SDS011;55692;53.356;10.030;2024-02-16T07:18:43;4.38;;;1.58;;
68714;SDS011;55692;53.356;10.030;2024-02-16T07:21:09;9.23;;;2.00;;
68714;SDS011;55692;53.356;10.030;2024-02-16T07:23:36;2.65;;;1.67;;
68714;SDS011;55692;53.356;10.030;2024-02-16T07:26:02;3.08;;;1.83;;
68714;SDS011;55692;53.356;10.030;2024-02-16T07:28:28;3.78;;;1.83;;
68714;SDS011;55692;53.356;10.030;2024-02-16T07:30:55;7.70;;;1.85;;
68714;SDS011;55692;53.356;10.030;2024-02-16T07:33:21;4.82;;;1.80;;
68714;SDS011;55692;53.356;10.030;2024-02-16T07:35:49;5.00;;;2.10;;
68714;SDS011;55692;53.356;10.030;2024-02-16T07:38:15;6.18;;;1.92;;
68714;SDS011;55692;53.356;10.030;2024-02-16T07:40:41;3.25;;;2.00;;
68714;SDS011;55692;53.356;10.030;2024-02-16T07:43:10;3.78;;;1.65;;
68714;SDS011;55692;53.356;10.030;2024-02-16T07:45:36;4.38;;;1.70;;
68714;SDS011;55692;53.356;10.030;2024-02-16T07:48:02;3.17;;;1.55;;
68714;SDS011;55692;53.356;10.030;2024-02-16T07:50:30;4.20;;;1.85;;
68714;SDS011;55692;53.356;10.030;2024-02-16T07:52:57;2.85;;;1.60;;
68714;SDS011;55692;53.356;10.030;2024-02-16T07:55:23;5.13;;;1.85;;
68714;SDS011;55692;53.356;10.030;2024-02-16T07:57:49;3.47;;;1.80;;
68714;SDS011;55692;53.356;10.030;2024-02-16T08:00:15;5.57;;;1.88;;
68714;SDS011;55692;53.356;10.030;2024-02-16T08:02:42;5.82;;;1.98;;
68714;SDS011;55692;53.356;10.030;2024-02-16T08:05:08;3.83;;;1.77;;
68714;SDS011;55692;53.356;10.030;2024-02-16T08:07:34;4.45;;;1.40;;
68714;SDS011;55692;53.356;10.030;2024-02-16T08:10:00;3.53;;;1.52;;
68714;SDS011;55692;53.356;10.030;2024-02-16T08:12:27;3.83;;;2.45;;
68714;SDS011;55692;53.356;10.030;2024-02-16T08:14:53;2.65;;;1.63;;
68714;SDS011;55692;53.356;10.030;2024-02-16T08:17:19;3.83;;;1.65;;
68714;SDS011;55692;53.356;10.030;2024-02-16T08:19:51;2.85;;;1.30;;
68714;SDS011;55692;53.356;10.030;2024-02-16T08:22:17;3.70;;;1.38;;
68714;SDS011;55692;53.356;10.030;2024-02-16T08:24:43;4.57;;;1.67;;
68714;SDS011;55692;53.356;10.030;2024-02-16T08:27:11;3.20;;;1.70;;
68714;SDS011;55692;53.356;10.030;2024-02-16T08:29:37;4.68;;;1.60;;
68714;SDS011;55692;53.356;10.030;2024-02-16T08:32:04;2.55;;;1.30;;
68714;SDS011;55692;53.356;10.030;2024-02-16T08:34:31;2.15;;;1.45;;
68714;SDS011;55692;53.356;10.030;2024-02-16T08:36:57;5.10;;;1.60;;
68714;SDS011;55692;53.356;10.030;2024-02-16T08:39:23;4.07;;;1.60;;
68714;SDS011;55692;53.356;10.030;2024-02-16T08:41:53;5.82;;;1.88;;
68714;SDS011;55692;53.356;10.030;2024-02-16T08:44:19;5.07;;;1.60;;
68714;SDS011;55692;53.356;10.030;2024-02-16T08:46:45;4.55;;;2.08;;
68714;SDS011;55692;53.356;10.030;2024-02-16T08:49:13;2.88;;;1.30;;
68714;SDS011;55692;53.356;10.030;2024-02-16T08:51:39;4.57;;;1.45;;
68714;SDS011;55692;53.356;10.030;2024-02-16T08:54:05;3.65;;;1.52;;
68714;SDS011;55692;53.356;10.030;2024-02-16T08:56:32;4.20;;;1.33;;
68714;SDS011;55692;53.356;10.030;2024-02-16T08:59:00;4.28;;;1.45;;
68714;SDS011;55692;53.356;10.030;2024-02-16T09:01:32;8.82;;;1.92;;
68714;SDS011;55692;53.356;10.030;2024-02-16T09:03:58;3.80;;;1.45;;
68714;SDS011;55692;53.356;10.030;2024-02-16T09:06:24;4.45;;;1.40;;
68714;SDS011;55692;53.356;10.030;2024-02-16T09:08:50;3.92;;;1.48;;
68714;SDS011;55692;53.356;10.030;2024-02-16T09:11:16;5.07;;;2.20;;
68714;SDS011;55692;53.356;10.030;2024-02-16T09:13:42;5.63;;;1.50;;
68714;SDS011;55692;53.356;10.030;2024-02-16T09:16:09;1.42;;;1.10;;
68714;SDS011;55692;53.356;10.030;2024-02-16T09:18:35;4.47;;;1.70;;
68714;SDS011;55692;53.356;10.030;2024-02-16T09:21:04;5.63;;;1.40;;
68714;SDS011;55692;53.356;10.030;2024-02-16T09:23:31;4.45;;;1.40;;
68714;SDS011;55692;53.356;10.030;2024-02-16T09:25:57;3.15;;;1.23;;
68714;SDS011;55692;53.356;10.030;2024-02-16T09:28:24;3.67;;;1.75;;
68714;SDS011;55692;53.356;10.030;2024-02-16T09:30:50;2.97;;;1.38;;
68714;SDS011;55692;53.356;10.030;2024-02-16T09:33:16;4.10;;;1.60;;
68714;SDS011;55692;53.356;10.030;2024-02-16T09:35:42;2.40;;;1.13;;
68714;SDS011;55692;53.356;10.030;2024-02-16T09:38:08;4.07;;;1.42;;
68714;SDS011;55692;53.356;10.030;2024-02-16T09:40:35;2.13;;;1.30;;
68714;SDS011;55692;53.356;10.030;2024-02-16T09:43:01;4.07;;;1.70;;
68714;SDS011;55692;53.356;10.030;2024-02-16T09:45:28;4.68;;;1.10;;
68714;SDS011;55692;53.356;10.030;2024-02-16T09:47:54;2.42;;;1.60;;
68714;SDS011;55692;53.356;10.030;2024-02-16T09:50:20;5.88;;;1.38;;
68714;SDS011;55692;53.356;10.030;2024-02-16T09:52:50;2.45;;;1.27;;
68714;SDS011;55692;53.356;10.030;2024-02-16T09:55:16;5.70;;;1.50;;
68714;SDS011;55692;53.356;10.030;2024-02-16T09:57:43;6.18;;;1.40;;
68714;SDS011;55692;53.356;10.030;2024-02-16T10:00:10;6.85;;;1.63;;
68714;SDS011;55692;53.356;10.030;2024-02-16T10:02:43;1.83;;;1.10;;
68714;SDS011;55692;53.356;10.030;2024-02-16T10:05:16;4.82;;;1.30;;
68714;SDS011;55692;53.356;10.030;2024-02-16T10:07:42;6.72;;;1.67;;
68714;SDS011;55692;53.356;10.030;2024-02-16T10:10:21;2.33;;;1.30;;
68714;SDS011;55692;53.356;10.030;2024-02-16T10:12:47;5.18;;;1.42;;
68714;SDS011;55692;53.356;10.030;2024-02-16T10:15:22;4.72;;;1.60;;
68714;SDS011;55692;53.356;10.030;2024-02-16T10:17:59;2.30;;;1.38;;
68714;SDS011;55692;53.356;10.030;2024-02-16T10:20:25;3.15;;;1.38;;
68714;SDS011;55692;53.356;10.030;2024-02-16T10:23:10;4.60;;;1.80;;
68714;SDS011;55692;53.356;10.030;2024-02-16T10:25:37;3.50;;;1.52;;
68714;SDS011;55692;53.356;10.030;2024-02-16T10:28:05;1.98;;;1.20;;
68714;SDS011;55692;53.356;10.030;2024-02-16T10:30:34;3.63;;;1.48;;
68714;SDS011;55692;53.356;10.030;2024-02-16T10:33:00;2.10;;;1.20;;
68714;SDS011;55692;53.356;10.030;2024-02-16T10:35:27;4.85;;;1.58;;
68714;SDS011;55692;53.356;10.030;2024-02-16T10:37:54;5.07;;;1.63;;
68714;SDS011;55692;53.356;10.030;2024-02-16T10:40:22;3.15;;;1.40;;
68714;SDS011;55692;53.356;10.030;2024-02-16T10:42:51;5.13;;;1.42;;
68714;SDS011;55692;53.356;10.030;2024-02-16T10:45:17;2.97;;;1.52;;
68714;SDS011;55692;53.356;10.030;2024-02-16T10:47:44;4.30;;;1.70;;
68714;SDS011;55692;53.356;10.030;2024-02-16T10:50:10;4.47;;;1.70;;
68714;SDS011;55692;53.356;10.030;2024-02-16T10:52:36;4.28;;;1.77;;
68714;SDS011;55692;53.356;10.030;2024-02-16T10:55:04;7.97;;;1.67;;
68714;SDS011;55692;53.356;10.030;2024-02-16T10:57:30;3.85;;;1.50;;
68714;SDS011;55692;53.356;10.030;2024-02-16T10:59:58;3.92;;;1.20;;
68714;SDS011;55692;53.356;10.030;2024-02-16T11:02:24;2.42;;;1.20;;
68714;SDS011;55692;53.356;10.030;2024-02-16T11:04:52;4.10;;;1.48;;
68714;SDS011;55692;53.356;10.030;2024-02-16T11:07:18;3.05;;;1.23;;
68714;SDS011;55692;53.356;10.030;2024-02-16T11:09:45;5.60;;;1.80;;
68714;SDS011;55692;53.356;10.030;2024-02-16T11:12:12;3.25;;;1.40;;
68714;SDS011;55692;53.356;10.030;2024-02-16T11:14:41;3.50;;;1.40;;
68714;SDS011;55692;53.356;10.030;2024-02-16T11:17:10;3.15;;;1.40;;
68714;SDS011;55692;53.356;10.030;2024-02-16T11:19:37;2.80;;;1.30;;
68714;SDS011;55692;53.356;10.030;2024-02-16T11:22:04;2.03;;;1.40;;
68714;SDS011;55692;53.356;10.030;2024-02-16T11:24:42;5.40;;;1.60;;
68714;SDS011;55692;53.356;10.030;2024-02-16T11:27:12;2.85;;;1.50;;
68714;SDS011;55692;53.356;10.030;2024-02-16T11:29:40;3.90;;;1.67;;
68714;SDS011;55692;53.356;10.030;2024-02-16T11:32:07;6.10;;;1.83;;
68714;SDS011;55692;53.356;10.030;2024-02-16T11:34:33;8.98;;;1.70;;
68714;SDS011;55692;53.356;10.030;2024-02-16T11:37:00;9.25;;;1.70;;
68714;SDS011;55692;53.356;10.030;2024-02-16T11:39:26;5.93;;;1.98;;
68714;SDS011;55692;53.356;10.030;2024-02-16T11:42:00;5.85;;;1.50;;
68714;SDS011;55692;53.356;10.030;2024-02-16T11:44:27;4.75;;;1.70;;
68714;SDS011;55692;53.356;10.030;2024-02-16T11:46:54;7.43;;;1.70;;
68714;SDS011;55692;53.356;10.030;2024-02-16T11:49:20;6.05;;;1.80;;
68714;SDS011;55692;53.356;10.030;2024-02-16T11:51:47;4.07;;;1.52;;
68714;SDS011;55692;53.356;10.030;2024-02-16T11:54:13;6.53;;;1.73;;
68714;SDS011;55692;53.356;10.030;2024-02-16T11:56:40;2.97;;;1.27;;
68714;SDS011;55692;53.356;10.030;2024-02-16T11:59:10;2.35;;;1.50;;
68714;SDS011;55692;53.356;10.030;2024-02-16T12:01:39;3.05;;;1.52;;
68714;SDS011;55692;53.356;10.030;2024-02-16T12:04:19;4.90;;;1.70;;
68714;SDS011;55692;53.356;10.030;2024-02-16T12:06:45;4.47;;;1.85;;
68714;SDS011;55692;53.356;10.030;2024-02-16T12:09:14;5.53;;;2.25;;
68714;SDS011;55692;53.356;10.030;2024-02-16T12:11:41;2.53;;;1.42;;
68714;SDS011;55692;53.356;10.030;2024-02-16T12:14:07;5.75;;;2.22;;
68714;SDS011;55692;53.356;10.030;2024-02-16T12:16:33;6.30;;;2.05;;
68714;SDS011;55692;53.356;10.030;2024-02-16T12:19:04;4.10;;;2.20;;
68714;SDS011;55692;53.356;10.030;2024-02-16T12:21:31;7.85;;;1.70;;
68714;SDS011;55692;53.356;10.030;2024-02-16T12:23:57;7.45;;;1.88;;
68714;SDS011;55692;53.356;10.030;2024-02-16T12:26:23;8.55;;;2.25;;
68714;SDS011;55692;53.356;10.030;2024-02-16T12:28:49;6.88;;;1.98;;
68714;SDS011;55692;53.356;10.030;2024-02-16T12:31:22;4.95;;;2.15;;
68714;SDS011;55692;53.356;10.030;2024-02-16T12:33:48;4.03;;;2.03;;
68714;SDS011;55692;53.356;10.030;2024-02-16T12:36:14;4.95;;;2.47;;
68714;SDS011;55692;53.356;10.030;2024-02-16T12:38:41;5.95;;;2.08;;
68714;SDS011;55692;53.356;10.030;2024-02-16T12:41:07;3.58;;;2.55;;
68714;SDS011;55692;53.356;10.030;2024-02-16T12:43:33;7.65;;;2.60;;
68714;SDS011;55692;53.356;10.030;2024-02-16T12:45:59;5.43;;;2.10;;
68714;SDS011;55692;53.356;10.030;2024-02-16T12:48:27;6.57;;;2.63;;
68714;SDS011;55692;53.356;10.030;2024-02-16T12:50:54;4.82;;;1.90;;
68714;SDS011;55692;53.356;10.030;2024-02-16T12:53:20;4.50;;;2.00;;
68714;SDS011;55692;53.356;10.030;2024-02-16T12:55:49;5.28;;;1.98;;
68714;SDS011;55692;53.356;10.030;2024-02-16T12:58:15;3.60;;;1.88;;
68714;SDS011;55692;53.356;10.030;2024-02-16T13:00:41;2.58;;;1.65;;
68714;SDS011;55692;53.356;10.030;2024-02-16T13:03:07;4.68;;;2.08;;
68714;SDS011;55692;53.356;10.030;2024-02-16T13:05:33;9.20;;;2.60;;
68714;SDS011;55692;53.356;10.030;2024-02-16T13:07:59;3.42;;;1.98;;
68714;SDS011;55692;53.356;10.030;2024-02-16T13:10:25;4.38;;;2.05;;
68714;SDS011;55692;53.356;10.030;2024-02-16T13:12:52;3.28;;;2.00;;
68714;SDS011;55692;53.356;10.030;2024-02-16T13:15:18;4.72;;;2.20;;
68714;SDS011;55692;53.356;10.030;2024-02-16T13:17:44;5.90;;;2.53;;
68714;SDS011;55692;53.356;10.030;2024-02-16T13:20:10;7.45;;;2.20;;
68714;SDS011;55692;53.356;10.030;2024-02-16T13:22:36;4.63;;;2.17;;
68714;SDS011;55692;53.356;10.030;2024-02-16T13:25:05;6.05;;;2.42;;
68714;SDS011;55692;53.356;10.030;2024-02-16T13:27:32;6.93;;;2.42;;
68714;SDS011;55692;53.356;10.030;2024-02-16T13:29:59;5.50;;;2.70;;
68714;SDS011;55692;53.356;10.030;2024-02-16T13:32:25;4.85;;;2.88;;
68714;SDS011;55692;53.356;10.030;2024-02-16T13:34:51;6.20;;;2.20;;
68714;SDS011;55692;53.356;10.030;2024-02-16T13:37:17;5.07;;;2.58;;
68714;SDS011;55692;53.356;10.030;2024-02-16T13:39:43;6.88;;;2.50;;
68714;SDS011;55692;53.356;10.030;2024-02-16T13:42:10;9.02;;;3.10;;
68714;SDS011;55692;53.356;10.030;2024-02-16T13:44:37;9.45;;;2.30;;
68714;SDS011;55692;53.356;10.030;2024-02-16T13:47:03;8.80;;;2.50;;
68714;SDS011;55692;53.356;10.030;2024-02-16T13:49:29;5.30;;;2.50;;
68714;SDS011;55692;53.356;10.030;2024-02-16T13:51:55;7.50;;;3.53;;
68714;SDS011;55692;53.356;10.030;2024-02-16T13:54:24;4.88;;;2.65;;
68714;SDS011;55692;53.356;10.030;2024-02-16T13:56:50;5.22;;;2.60;;
68714;SDS011;55692;53.356;10.030;2024-02-16T13:59:16;7.88;;;2.70;;
68714;SDS011;55692;53.356;10.030;2024-02-16T14:01:42;7.45;;;3.08;;
68714;SDS011;55692;53.356;10.030;2024-02-16T14:04:08;6.32;;;3.13;;
68714;SDS011;55692;53.356;10.030;2024-02-16T14:06:34;5.93;;;2.88;;
68714;SDS011;55692;53.356;10.030;2024-02-16T14:09:01;7.72;;;2.83;;
68714;SDS011;55692;53.356;10.030;2024-02-16T14:13:59;8.85;;;3.35;;
68714;SDS011;55692;53.356;10.030;2024-02-16T14:16:25;7.05;;;3.50;;
68714;SDS011;55692;53.356;10.030;2024-02-16T14:18:51;8.20;;;3.17;;
68714;SDS011;55692;53.356;10.030;2024-02-16T14:21:17;7.85;;;3.00;;
68714;SDS011;55692;53.356;10.030;2024-02-16T14:23:43;11.65;;;2.95;;
68714;SDS011;55692;53.356;10.030;2024-02-16T14:26:09;10.13;;;3.17;;
68714;SDS011;55692;53.356;10.030;2024-02-16T14:28:36;5.57;;;2.83;;
68714;SDS011;55692;53.356;10.030;2024-02-16T14:31:02;12.50;;;3.92;;
68714;SDS011;55692;53.356;10.030;2024-02-16T14:33:28;8.35;;;3.22;;